MMCL/CUL METAR and TAF weather

Enter ICAO airport designator
Station Type Date Time Source
MMCL METAR 2022/07/03 13:45 UTC NOAA

MMCL 031345Z 04005KT 10SM FEW015 FEW250 26/23 A2987 RMK 8/602 HZY


Station Type Date Time Source
MMCL Decoded METAR 2022/07/03 13:45 UTC NOAA

Culiacan, Sin., Mexico (MMCL) 24-49N 107-24W
Jul 03, 2022 - 09:45 AM EDT / 2022.07.03 1345 UTC
Wind: from the NE (040 degrees) at 6 MPH (5 KT):0
Visibility: 10 mile(s):0
Sky conditions: mostly clear
Temperature: 78 F (26 C)
Dew Point: 73 F (23 C)
Relative Humidity: 83%
Pressure (altimeter): 29.87 in. Hg (1011 hPa)
ob: MMCL 031345Z 04005KT 10SM FEW015 FEW250 26/23 A2987 RMK 8/602 HZY
cycle: 14

Station Type Date Time Source
MMCL TAF 2022/07/03 06:20 UTC NOAA

TAF MMCL 030514Z 0306/0406 03005KT P6SM SCT100
FM031800 26010KT P6SM SCT030 SCT200
FM040300 23005KT P6SM SCT020 BKN200

Example: see airport list